createdAt,value
2019-01-31T00:03:00.663Z,99.70
2019-01-31T00:06:05.208Z,98.90
2019-01-31T00:09:09.072Z,98.50
2019-01-31T00:12:26.188Z,98.50
2019-01-31T00:15:18.133Z,98.40
2019-01-31T00:18:16.272Z,98.70
2019-01-31T00:21:25.645Z,98.80
2019-01-31T00:24:18.757Z,99.00
2019-01-31T00:27:11.719Z,99.00
2019-01-31T00:30:10.678Z,99.10
2019-01-31T00:33:20.185Z,99.20
2019-01-31T00:36:13.473Z,99.10
2019-01-31T00:39:23.206Z,98.90
2019-01-31T00:42:19.775Z,99.00
2019-01-31T00:45:02.875Z,99.00
2019-01-31T00:48:24.191Z,98.80
2019-01-31T00:51:12.852Z,99.00
2019-01-31T00:54:24.607Z,99.50
2019-01-31T00:57:50.744Z,99.80
2019-01-31T01:00:37.920Z,99.90
2019-01-31T01:03:50.343Z,99.90
2019-01-31T01:06:50.937Z,99.90
2019-01-31T01:09:45.305Z,99.90
2019-01-31T01:12:39.228Z,99.90
2019-01-31T01:15:33.198Z,99.90
2019-01-31T01:18:11.393Z,99.90
2019-01-31T01:21:05.101Z,99.90
2019-01-31T01:24:08.310Z,99.90
2019-01-31T01:27:14.015Z,99.90
2019-01-31T01:30:05.202Z,99.90
2019-01-31T01:33:03.650Z,99.90
2019-01-31T01:36:05.372Z,99.90
2019-01-31T01:39:19.301Z,99.90
2019-01-31T01:42:05.557Z,99.90
2019-01-31T01:45:15.186Z,99.90
2019-01-31T01:48:11.206Z,99.90
2019-01-31T01:51:25.001Z,99.90
2019-01-31T01:54:45.516Z,99.90
2019-01-31T01:58:04.082Z,99.90
2019-01-31T02:01:11.695Z,99.90
2019-01-31T02:03:59.070Z,99.90
2019-01-31T02:06:45.564Z,99.90
2019-01-31T02:09:43.924Z,99.90
2019-01-31T02:13:08.572Z,99.90
2019-01-31T02:16:12.911Z,99.90
2019-01-31T02:19:14.182Z,99.90
2019-01-31T02:22:08.941Z,99.90
2019-01-31T02:24:50.500Z,99.90
2019-01-31T02:27:52.857Z,99.90
2019-01-31T02:30:34.890Z,99.90
2019-01-31T02:33:41.201Z,99.90
2019-01-31T02:36:44.509Z,99.90
2019-01-31T02:39:52.545Z,99.90
2019-01-31T02:42:42.531Z,99.90
2019-01-31T02:46:05.664Z,99.90
2019-01-31T02:49:18.235Z,99.90
2019-01-31T02:52:15.905Z,99.90
2019-01-31T02:55:10.997Z,99.90
2019-01-31T02:58:09.733Z,99.90
2019-01-31T03:01:06.375Z,99.90
2019-01-31T03:04:16.241Z,99.90
2019-01-31T03:07:36.560Z,99.90
2019-01-31T03:11:02.361Z,99.90
2019-01-31T03:13:43.508Z,99.90
2019-01-31T03:17:04.984Z,99.90
2019-01-31T03:20:01.874Z,99.90
2019-01-31T03:23:17.871Z,99.90
2019-01-31T03:26:24.443Z,99.90
2019-01-31T03:29:25.704Z,99.90
2019-01-31T03:32:08.683Z,99.90
2019-01-31T03:35:34.237Z,99.90
2019-01-31T03:38:27.360Z,99.90
2019-01-31T03:41:31.854Z,99.90
2019-01-31T03:44:37.635Z,99.90
2019-01-31T03:47:27.750Z,99.90
2019-01-31T03:50:12.534Z,99.90
2019-01-31T03:53:23.058Z,99.90
2019-01-31T03:56:28.104Z,99.90
2019-01-31T03:59:23.341Z,99.90
2019-01-31T04:02:50.279Z,99.90
2019-01-31T04:05:36.241Z,99.90
2019-01-31T04:08:06.232Z,99.90
2019-01-31T04:10:37.140Z,99.90
2019-01-31T04:13:07.706Z,99.90
2019-01-31T04:15:39.660Z,99.90
2019-01-31T04:18:10.254Z,99.60
2019-01-31T04:20:40.807Z,99.60
2019-01-31T04:23:11.218Z,99.70
2019-01-31T04:25:41.388Z,99.60
2019-01-31T04:28:11.355Z,99.90
2019-01-31T04:30:42.453Z,99.60
2019-01-31T04:33:12.883Z,99.70
2019-01-31T04:35:43.116Z,99.90
2019-01-31T04:38:13.223Z,99.90
2019-01-31T04:40:43.470Z,99.90
2019-01-31T04:43:13.431Z,99.70
2019-01-31T04:45:43.623Z,99.60
2019-01-31T04:48:13.594Z,99.90
2019-01-31T04:50:43.201Z,99.90
2019-01-31T04:53:13.072Z,99.90
2019-01-31T04:55:43.102Z,99.90
2019-01-31T04:58:13.120Z,99.90
2019-01-31T05:00:43.217Z,99.90
2019-01-31T05:03:14.453Z,99.90
2019-01-31T05:05:44.751Z,99.90
2019-01-31T05:08:15.065Z,99.90
2019-01-31T05:10:45.257Z,99.90
2019-01-31T05:13:15.783Z,99.90
2019-01-31T05:15:47.797Z,99.90
2019-01-31T05:18:20.999Z,99.90
2019-01-31T05:20:51.085Z,99.90
2019-01-31T05:23:21.824Z,99.90
2019-01-31T05:25:53.146Z,99.90
2019-01-31T05:28:23.243Z,99.90
2019-01-31T05:30:53.331Z,99.90
2019-01-31T05:33:23.921Z,99.90
2019-01-31T05:35:54.421Z,99.90
2019-01-31T05:38:24.812Z,99.90
2019-01-31T05:40:55.980Z,99.90
2019-01-31T05:43:26.965Z,99.90
2019-01-31T05:45:57.871Z,99.90
2019-01-31T05:48:28.221Z,99.90
2019-01-31T05:50:58.694Z,99.90
2019-01-31T05:53:29.484Z,99.90
2019-01-31T05:55:59.982Z,99.90
2019-01-31T05:58:29.822Z,99.90
2019-01-31T06:00:59.806Z,99.80
2019-01-31T06:03:30.269Z,99.90
2019-01-31T06:06:00.082Z,99.80
2019-01-31T06:08:29.990Z,99.90
2019-01-31T06:11:07.119Z,99.60
2019-01-31T06:13:31.389Z,99.90
2019-01-31T06:16:01.304Z,99.90
2019-01-31T06:18:30.959Z,99.90
2019-01-31T06:21:00.761Z,99.90
2019-01-31T06:23:30.508Z,99.90
2019-01-31T06:26:00.864Z,99.90
2019-01-31T06:28:30.948Z,99.90
2019-01-31T06:31:00.718Z,99.90
2019-01-31T06:33:30.542Z,99.90
2019-01-31T06:36:00.848Z,99.90
2019-01-31T06:38:30.951Z,99.90
2019-01-31T06:41:00.814Z,99.90
2019-01-31T06:43:30.749Z,99.90
2019-01-31T06:46:00.759Z,99.90
2019-01-31T06:48:33.864Z,99.90
2019-01-31T06:51:03.184Z,99.90
2019-01-31T06:53:33.084Z,99.90
2019-01-31T06:56:05.164Z,99.90
2019-01-31T06:58:35.759Z,99.90
2019-01-31T07:01:05.892Z,99.90
2019-01-31T07:03:35.649Z,99.90
2019-01-31T07:06:05.659Z,99.90
2019-01-31T07:08:35.560Z,99.90
2019-01-31T07:11:05.427Z,99.90
2019-01-31T07:13:34.966Z,99.90
2019-01-31T07:16:04.436Z,99.90
2019-01-31T07:18:34.219Z,99.90
2019-01-31T07:21:04.127Z,99.90
2019-01-31T07:23:33.916Z,99.90
2019-01-31T07:26:03.409Z,99.90
2019-01-31T07:28:32.990Z,99.90
2019-01-31T07:31:02.560Z,99.90
2019-01-31T07:33:32.162Z,99.90
2019-01-31T07:36:02.188Z,99.90
2019-01-31T07:38:31.930Z,99.90
2019-01-31T07:41:01.569Z,99.90
2019-01-31T07:43:31.382Z,99.90
2019-01-31T07:46:01.619Z,99.90
2019-01-31T07:48:31.669Z,99.90
2019-01-31T07:51:01.546Z,99.90
2019-01-31T07:53:31.895Z,99.90
2019-01-31T07:56:01.492Z,99.90
2019-01-31T07:58:31.197Z,99.90
2019-01-31T08:01:00.912Z,99.90
2019-01-31T08:03:30.442Z,99.90
2019-01-31T08:06:00.553Z,99.90
2019-01-31T08:08:30.033Z,99.90
2019-01-31T08:10:59.535Z,99.90
2019-01-31T08:13:29.412Z,99.90
2019-01-31T08:15:59.009Z,99.90
2019-01-31T08:18:28.951Z,99.90
2019-01-31T08:20:58.634Z,99.90
2019-01-31T08:23:28.361Z,99.90
2019-01-31T08:25:58.129Z,99.90
2019-01-31T08:28:27.933Z,99.90
2019-01-31T08:30:57.537Z,99.90
2019-01-31T08:33:28.484Z,99.90
2019-01-31T08:35:58.577Z,99.90
2019-01-31T08:38:28.153Z,99.90
2019-01-31T08:40:57.811Z,99.90
2019-01-31T08:43:27.600Z,99.90
2019-01-31T08:45:57.241Z,99.90
2019-01-31T08:48:26.977Z,99.90
2019-01-31T08:50:56.750Z,99.90
2019-01-31T08:53:26.885Z,99.90
2019-01-31T08:55:56.981Z,99.90
2019-01-31T08:58:26.808Z,99.90
2019-01-31T09:00:56.520Z,99.90
2019-01-31T09:03:26.232Z,99.90
2019-01-31T09:05:56.190Z,99.90
2019-01-31T09:08:26.412Z,99.90
2019-01-31T09:10:56.248Z,99.90
2019-01-31T09:13:28.484Z,99.90
2019-01-31T09:15:58.511Z,99.90
2019-01-31T09:18:28.104Z,99.90
2019-01-31T09:21:18.404Z,99.90
2019-01-31T09:24:27.228Z,99.90
2019-01-31T09:27:40.609Z,99.90
2019-01-31T09:31:12.323Z,99.90
2019-01-31T09:33:55.307Z,99.90
2019-01-31T09:37:08.355Z,99.90
2019-01-31T09:40:02.259Z,99.90
2019-01-31T09:43:33.799Z,99.90
2019-01-31T09:46:34.799Z,99.90
2019-01-31T09:49:26.655Z,99.90
2019-01-31T09:52:25.685Z,99.90
2019-01-31T09:55:30.387Z,99.90
2019-01-31T09:58:20.658Z,99.90
2019-01-31T10:01:37.226Z,99.90
2019-01-31T10:04:26.222Z,99.70
2019-01-31T10:07:40.075Z,99.90
2019-01-31T10:10:36.856Z,99.90
2019-01-31T10:13:46.646Z,99.90
2019-01-31T10:17:01.465Z,99.90
2019-01-31T10:20:06.285Z,99.90
2019-01-31T10:23:14.763Z,99.90
2019-01-31T10:26:28.099Z,99.90
2019-01-31T10:29:52.917Z,99.90
2019-01-31T10:33:14.913Z,99.90
2019-01-31T10:36:34.396Z,99.90
2019-01-31T10:39:41.802Z,99.60
2019-01-31T10:42:49.428Z,99.90
2019-01-31T10:45:51.783Z,99.90
2019-01-31T10:48:51.358Z,99.90
2019-01-31T10:51:59.280Z,99.90
2019-01-31T10:54:44.135Z,99.50
2019-01-31T10:58:03.912Z,99.40
2019-01-31T11:01:16.198Z,99.10
2019-01-31T11:04:30.111Z,99.10
2019-01-31T11:07:24.956Z,99.20
2019-01-31T11:10:12.966Z,99.10
2019-01-31T11:13:20.997Z,98.90
2019-01-31T11:16:07.224Z,98.70
2019-01-31T11:19:16.901Z,98.40
2019-01-31T11:22:12.517Z,98.40
2019-01-31T11:25:08.429Z,98.20
2019-01-31T11:28:21.767Z,98.20
2019-01-31T11:31:20.463Z,97.80
2019-01-31T11:34:15.373Z,97.90
2019-01-31T11:37:00.077Z,98.20
2019-01-31T11:40:01.712Z,98.20
2019-01-31T11:43:15.522Z,98.30
2019-01-31T11:46:35.040Z,98.50
2019-01-31T11:49:29.815Z,98.00
2019-01-31T11:52:33.717Z,98.00
2019-01-31T11:55:36.086Z,97.60
2019-01-31T11:58:33.182Z,97.80
2019-01-31T12:01:03.196Z,98.00
2019-01-31T12:03:33.376Z,98.40
2019-01-31T12:06:03.904Z,98.20
2019-01-31T12:08:33.911Z,98.40
2019-01-31T12:11:04.093Z,98.30
2019-01-31T12:13:34.417Z,98.30
2019-01-31T12:16:05.087Z,98.30
2019-01-31T12:18:34.654Z,98.30
2019-01-31T12:21:04.759Z,98.60
2019-01-31T12:23:35.597Z,98.70
2019-01-31T12:26:05.580Z,98.50
2019-01-31T12:28:36.365Z,98.50
2019-01-31T12:31:06.149Z,98.70
2019-01-31T12:33:35.811Z,98.70
2019-01-31T12:36:06.064Z,99.10
2019-01-31T12:38:37.091Z,99.00
2019-01-31T12:41:06.741Z,99.20
2019-01-31T12:43:36.434Z,99.20
2019-01-31T12:46:06.215Z,99.30
2019-01-31T12:48:35.849Z,99.10
2019-01-31T12:51:05.863Z,99.00
2019-01-31T12:53:35.881Z,99.00
2019-01-31T12:56:06.317Z,99.10
2019-01-31T12:58:35.916Z,99.30
2019-01-31T13:01:06.361Z,99.40
2019-01-31T13:03:36.076Z,99.60
2019-01-31T13:06:06.130Z,99.60
2019-01-31T13:08:35.763Z,99.20
2019-01-31T13:11:06.501Z,99.50
2019-01-31T13:13:45.943Z,99.50
2019-01-31T13:16:08.068Z,99.40
2019-01-31T13:18:38.288Z,99.30
2019-01-31T13:21:08.516Z,99.00
2019-01-31T13:23:38.404Z,99.10
2019-01-31T13:26:08.173Z,99.20
2019-01-31T13:28:38.229Z,99.30
2019-01-31T13:31:07.837Z,99.20
2019-01-31T13:33:37.797Z,99.40
2019-01-31T13:36:13.612Z,99.20
2019-01-31T13:38:43.583Z,99.10
2019-01-31T13:41:13.390Z,98.90
2019-01-31T13:43:43.157Z,99.00
2019-01-31T13:46:12.887Z,98.80
2019-01-31T13:48:43.617Z,98.90
2019-01-31T13:51:13.437Z,98.90
2019-01-31T13:53:43.206Z,99.00
2019-01-31T13:56:12.971Z,99.20
2019-01-31T13:58:42.632Z,99.10
2019-01-31T14:01:12.277Z,99.00
2019-01-31T14:03:41.873Z,99.20
2019-01-31T14:06:11.452Z,99.10
2019-01-31T14:08:41.086Z,99.00
2019-01-31T14:11:10.953Z,99.10
2019-01-31T14:13:40.796Z,99.00
2019-01-31T14:16:10.685Z,99.00
2019-01-31T14:18:40.534Z,99.20
2019-01-31T14:21:10.428Z,99.10
2019-01-31T14:23:40.198Z,99.20
2019-01-31T14:26:10.081Z,99.40
2019-01-31T14:28:39.919Z,99.40
2019-01-31T14:31:09.770Z,99.60
2019-01-31T14:33:39.274Z,99.40
2019-01-31T14:36:08.958Z,99.30
2019-01-31T14:38:38.624Z,99.50
2019-01-31T14:41:08.345Z,99.50
2019-01-31T14:43:38.456Z,99.50
2019-01-31T14:46:08.249Z,99.40
2019-01-31T14:48:38.114Z,99.30
2019-01-31T14:51:08.054Z,99.30
2019-01-31T14:53:37.806Z,99.20
2019-01-31T14:56:07.675Z,99.10
2019-01-31T14:58:37.563Z,99.40
2019-01-31T15:01:07.168Z,99.40
2019-01-31T15:03:37.317Z,99.50
2019-01-31T15:06:07.283Z,99.40
2019-01-31T15:08:37.386Z,99.20
2019-01-31T15:11:07.402Z,99.00
2019-01-31T15:13:37.203Z,99.00
2019-01-31T15:16:07.287Z,98.90
2019-01-31T15:18:37.075Z,98.90
2019-01-31T15:21:07.167Z,98.90
2019-01-31T15:23:36.789Z,99.00
2019-01-31T15:26:06.265Z,98.90
2019-01-31T15:28:36.553Z,98.70
2019-01-31T15:31:06.208Z,98.80
2019-01-31T15:33:35.934Z,98.70
2019-01-31T15:36:05.926Z,98.80
2019-01-31T15:38:35.616Z,98.50
2019-01-31T15:41:05.505Z,98.40
2019-01-31T15:43:35.011Z,98.30
2019-01-31T15:46:05.298Z,98.30
2019-01-31T15:48:35.246Z,98.30
2019-01-31T15:51:05.278Z,98.30
2019-01-31T15:53:36.172Z,97.90
2019-01-31T15:56:07.717Z,98.00
2019-01-31T15:58:38.194Z,98.20
2019-01-31T16:01:11.266Z,98.20
2019-01-31T16:03:41.292Z,98.00
2019-01-31T16:06:12.130Z,97.20
2019-01-31T16:08:43.181Z,97.50
2019-01-31T16:11:13.728Z,97.70
2019-01-31T16:13:43.696Z,97.50
2019-01-31T16:16:15.090Z,97.20
2019-01-31T16:18:45.295Z,97.10
2019-01-31T16:21:15.355Z,97.30
2019-01-31T16:23:47.498Z,97.50
2019-01-31T16:26:17.503Z,97.60
2019-01-31T16:28:47.486Z,97.20
2019-01-31T16:31:18.834Z,97.30
2019-01-31T16:33:48.750Z,97.30
2019-01-31T16:36:19.387Z,97.60
2019-01-31T16:38:49.599Z,97.60
2019-01-31T16:41:19.618Z,97.50
2019-01-31T16:43:49.844Z,97.40
2019-01-31T16:46:19.931Z,97.30
2019-01-31T16:48:51.683Z,97.20
2019-01-31T16:51:21.505Z,97.00
2019-01-31T16:53:51.854Z,97.10
2019-01-31T16:56:22.015Z,96.90
2019-01-31T16:58:53.024Z,97.20
2019-01-31T17:01:23.617Z,97.30
2019-01-31T17:03:56.571Z,97.40
2019-01-31T17:06:27.534Z,97.60
2019-01-31T17:08:58.403Z,97.80
2019-01-31T17:11:29.562Z,98.00
2019-01-31T17:14:00.804Z,98.00
2019-01-31T17:16:32.637Z,98.10
2019-01-31T17:19:03.334Z,98.20
2019-01-31T17:21:34.252Z,98.30
2019-01-31T17:24:07.067Z,98.20
2019-01-31T17:26:37.977Z,98.20
2019-01-31T17:29:09.379Z,98.30
2019-01-31T17:31:45.305Z,98.50
2019-01-31T17:34:21.539Z,98.60
2019-01-31T17:36:59.050Z,98.60
2019-01-31T17:39:33.803Z,98.60
2019-01-31T17:42:05.881Z,98.70
2019-01-31T17:44:39.485Z,98.60
2019-01-31T17:47:13.276Z,98.60
2019-01-31T17:49:48.591Z,98.60
2019-01-31T17:52:26.423Z,98.80
2019-01-31T17:55:03.513Z,98.80
2019-01-31T17:57:33.969Z,98.70
2019-01-31T18:00:09.465Z,98.80
2019-01-31T18:02:45.362Z,98.70
2019-01-31T18:05:18.167Z,98.90
2019-01-31T18:07:51.520Z,99.00
2019-01-31T18:10:28.633Z,99.00
2019-01-31T18:13:01.868Z,99.20
2019-01-31T18:15:42.036Z,99.30
2019-01-31T18:18:07.989Z,99.20
2019-01-31T18:20:40.115Z,99.20
2019-01-31T18:23:14.349Z,99.20
2019-01-31T18:25:47.780Z,99.30
2019-01-31T18:28:21.558Z,99.40
2019-01-31T18:30:53.562Z,99.40
2019-01-31T18:33:23.347Z,99.50
2019-01-31T18:35:53.028Z,99.50
2019-01-31T18:38:22.995Z,99.60
2019-01-31T18:40:53.000Z,99.40
2019-01-31T18:43:22.773Z,99.50
2019-01-31T18:45:53.679Z,99.40
2019-01-31T18:48:23.560Z,99.30
2019-01-31T18:50:53.434Z,99.30
2019-01-31T18:53:23.453Z,99.40
2019-01-31T18:55:53.277Z,99.50
2019-01-31T18:58:23.155Z,99.40
2019-01-31T19:00:53.146Z,99.30
2019-01-31T19:03:22.878Z,99.30
2019-01-31T19:05:52.750Z,99.10
2019-01-31T19:08:22.343Z,99.10
2019-01-31T19:10:52.110Z,99.00
2019-01-31T19:13:21.759Z,98.80
2019-01-31T19:15:51.709Z,98.80
2019-01-31T19:18:21.382Z,98.90
2019-01-31T19:20:51.030Z,98.90
2019-01-31T19:23:20.730Z,98.90
2019-01-31T19:25:50.502Z,99.10
2019-01-31T19:28:21.073Z,99.10
2019-01-31T19:30:50.677Z,99.20
2019-01-31T19:33:20.257Z,99.10
2019-01-31T19:35:50.212Z,99.10
2019-01-31T19:38:20.216Z,98.90
2019-01-31T19:40:50.051Z,99.00
2019-01-31T19:43:20.098Z,99.00
2019-01-31T19:45:50.921Z,98.90
2019-01-31T19:48:23.272Z,98.80
2019-01-31T19:50:53.837Z,98.90
2019-01-31T19:53:23.498Z,98.80
2019-01-31T19:55:53.353Z,98.70
2019-01-31T19:58:23.098Z,98.80
2019-01-31T20:00:52.733Z,98.70
2019-01-31T20:03:22.910Z,98.80
2019-01-31T20:05:54.652Z,98.60
2019-01-31T20:08:24.580Z,98.60
2019-01-31T20:10:56.126Z,98.60
2019-01-31T20:13:26.838Z,98.60
2019-01-31T20:15:57.135Z,98.40
2019-01-31T20:18:28.118Z,98.30
2019-01-31T20:20:58.106Z,98.20
2019-01-31T20:23:27.786Z,98.20
2019-01-31T20:25:57.306Z,98.30
2019-01-31T20:28:27.364Z,98.30
2019-01-31T20:30:57.310Z,98.20
2019-01-31T20:33:27.456Z,98.10
2019-01-31T20:35:57.616Z,98.10
2019-01-31T20:38:27.732Z,98.00
2019-01-31T20:40:57.776Z,98.00
2019-01-31T20:43:27.408Z,98.10
2019-01-31T20:45:57.479Z,98.00
2019-01-31T20:48:27.397Z,98.00
2019-01-31T20:50:57.668Z,98.00
2019-01-31T20:53:27.504Z,97.90
2019-01-31T20:55:57.894Z,98.00
2019-01-31T20:58:28.559Z,98.00
2019-01-31T21:00:58.702Z,98.00
2019-01-31T21:03:28.940Z,98.10
2019-01-31T21:05:59.458Z,98.00
2019-01-31T21:08:29.785Z,97.90
2019-01-31T21:10:59.981Z,98.00
2019-01-31T21:13:29.986Z,98.00
2019-01-31T21:16:00.240Z,98.00
2019-01-31T21:18:31.525Z,97.80
2019-01-31T21:21:01.640Z,97.90
2019-01-31T21:23:31.472Z,97.80
2019-01-31T21:26:01.512Z,97.80
2019-01-31T21:28:31.331Z,97.70
2019-01-31T21:31:01.340Z,97.70
2019-01-31T21:33:31.356Z,97.70
2019-01-31T21:36:01.450Z,97.70
2019-01-31T21:38:31.236Z,97.60
2019-01-31T21:41:00.996Z,97.60
2019-01-31T21:43:32.044Z,97.50
2019-01-31T21:46:02.468Z,97.50
2019-01-31T21:48:32.035Z,97.40
2019-01-31T21:51:01.828Z,97.40
2019-01-31T21:53:31.402Z,97.60
2019-01-31T21:56:00.972Z,97.40
2019-01-31T21:58:30.688Z,97.50
2019-01-31T22:01:00.334Z,97.50
2019-01-31T22:03:29.833Z,97.20
2019-01-31T22:05:59.527Z,97.20
2019-01-31T22:08:29.334Z,97.20
2019-01-31T22:10:59.095Z,97.20
2019-01-31T22:13:28.796Z,97.10
2019-01-31T22:15:58.630Z,96.90
2019-01-31T22:18:28.274Z,96.90
2019-01-31T22:20:57.891Z,97.00
2019-01-31T22:23:27.369Z,97.00
2019-01-31T22:25:56.924Z,97.10
2019-01-31T22:28:26.536Z,96.90
2019-01-31T22:30:56.546Z,96.90
2019-01-31T22:33:26.120Z,96.90
2019-01-31T22:35:55.842Z,96.70
2019-01-31T22:38:25.696Z,96.80
2019-01-31T22:40:55.480Z,96.70
2019-01-31T22:43:25.568Z,96.60
2019-01-31T22:45:55.498Z,96.50
2019-01-31T22:48:25.708Z,96.40
2019-01-31T22:50:56.138Z,96.40
2019-01-31T22:53:27.427Z,96.60
2019-01-31T22:55:58.439Z,96.60
2019-01-31T22:58:29.329Z,96.90
2019-01-31T23:01:35.923Z,97.00
2019-01-31T23:04:06.836Z,97.20
2019-01-31T23:06:37.660Z,97.20
2019-01-31T23:09:11.850Z,97.50
2019-01-31T23:11:42.893Z,97.50
2019-01-31T23:14:13.461Z,97.80
2019-01-31T23:16:44.533Z,97.90
2019-01-31T23:19:17.225Z,98.00
2019-01-31T23:21:47.445Z,98.20
2019-01-31T23:24:17.589Z,98.50
2019-01-31T23:26:48.307Z,98.70
2019-01-31T23:29:18.592Z,98.80
2019-01-31T23:31:48.399Z,99.00
2019-01-31T23:34:18.323Z,99.30
2019-01-31T23:36:48.179Z,99.70
2019-01-31T23:39:18.152Z,99.70
2019-01-31T23:41:48.184Z,99.80
2019-01-31T23:44:17.949Z,99.90
2019-01-31T23:46:48.057Z,99.90
2019-01-31T23:49:18.108Z,99.90
2019-01-31T23:51:48.593Z,99.90
2019-01-31T23:54:19.237Z,99.90
2019-01-31T23:56:49.631Z,99.90
2019-01-31T23:59:20.029Z,99.90
